createdAt,value
2022-11-21T00:01:35.174Z,40.50
2022-11-21T00:04:11.433Z,39.90
2022-11-21T00:06:47.391Z,42.20
2022-11-21T00:09:23.589Z,41.00
2022-11-21T00:11:59.357Z,41.90
2022-11-21T00:14:36.284Z,41.90
2022-11-21T00:17:12.512Z,40.90
2022-11-21T00:19:48.464Z,41.00
2022-11-21T00:22:24.450Z,40.00
2022-11-21T00:25:00.645Z,44.40
2022-11-21T00:27:36.652Z,48.40
2022-11-21T00:30:15.635Z,49.40
2022-11-21T00:32:51.696Z,45.50
2022-11-21T00:35:27.741Z,45.30
2022-11-21T00:38:03.611Z,41.60
2022-11-21T00:40:39.601Z,44.10
2022-11-21T00:43:15.651Z,45.00
2022-11-21T00:45:51.521Z,45.30
2022-11-21T00:48:27.267Z,42.30
2022-11-21T00:51:03.373Z,44.20
2022-11-21T00:53:39.204Z,40.00
2022-11-21T00:56:15.328Z,38.40
2022-11-21T00:58:51.197Z,41.50
2022-11-21T01:01:27.254Z,41.30
2022-11-21T01:04:03.220Z,40.10
2022-11-21T01:06:41.438Z,39.80
2022-11-21T01:09:17.284Z,38.40
2022-11-21T01:11:53.135Z,39.80
2022-11-21T01:14:29.507Z,40.70
2022-11-21T01:17:05.739Z,40.00
2022-11-21T01:19:41.521Z,40.80
2022-11-21T01:22:17.394Z,46.80
2022-11-21T01:24:54.088Z,44.60
2022-11-21T01:27:29.953Z,45.40
2022-11-21T01:30:06.832Z,44.30
2022-11-21T01:32:42.835Z,43.10
2022-11-21T01:35:19.147Z,43.00
2022-11-21T01:37:54.996Z,42.50
2022-11-21T01:40:38.430Z,44.00
2022-11-21T01:43:18.721Z,43.40
2022-11-21T01:46:11.745Z,41.80
2022-11-21T01:48:54.477Z,44.60
2022-11-21T01:51:39.361Z,45.40
2022-11-21T01:54:24.257Z,43.70
2022-11-21T01:57:08.839Z,44.10
2022-11-21T01:59:54.311Z,42.20
2022-11-21T02:02:35.899Z,38.80
2022-11-21T02:05:23.431Z,40.90
2022-11-21T02:08:06.242Z,40.50
2022-11-21T02:10:51.123Z,39.80
2022-11-21T02:13:28.071Z,41.20
2022-11-21T02:16:04.888Z,41.10
2022-11-21T02:18:40.702Z,37.90
2022-11-21T02:21:30.799Z,40.80
2022-11-21T02:24:18.484Z,39.20
2022-11-21T02:26:54.489Z,46.60
2022-11-21T02:29:31.348Z,49.80
2022-11-21T02:32:09.588Z,50.40
2022-11-21T02:34:45.368Z,47.10
2022-11-21T02:37:22.139Z,43.50
2022-11-21T02:39:59.912Z,44.30
2022-11-21T02:42:46.864Z,45.50
2022-11-21T02:45:33.243Z,44.30
2022-11-21T02:48:09.957Z,45.10
2022-11-21T02:50:48.613Z,48.70
2022-11-21T02:53:24.600Z,42.00
2022-11-21T02:56:00.538Z,43.70
2022-11-21T02:58:36.942Z,44.00
2022-11-21T03:01:12.983Z,42.40
2022-11-21T03:03:48.843Z,38.00
2022-11-21T03:06:24.646Z,39.00
2022-11-21T03:09:00.533Z,38.90
2022-11-21T03:11:36.468Z,36.80
2022-11-21T03:14:12.642Z,45.20
2022-11-21T03:16:48.758Z,47.80
2022-11-21T03:19:24.634Z,45.30
2022-11-21T03:22:00.653Z,43.10
2022-11-21T03:24:36.547Z,42.30
2022-11-21T03:27:12.505Z,41.50
2022-11-21T03:29:48.881Z,43.00
2022-11-21T03:32:24.624Z,43.70
2022-11-21T03:35:00.781Z,43.30
2022-11-21T03:37:36.566Z,38.50
2022-11-21T03:40:15.524Z,37.70
2022-11-21T03:42:51.561Z,39.00
2022-11-21T03:45:27.372Z,37.60
2022-11-21T03:48:04.058Z,36.50
2022-11-21T03:50:40.718Z,39.70
2022-11-21T03:53:16.592Z,37.80
2022-11-21T03:55:52.374Z,36.20
2022-11-21T03:58:28.184Z,37.70
2022-11-21T04:01:04.320Z,38.90
2022-11-21T04:03:41.289Z,37.80
2022-11-21T04:06:21.049Z,38.80
2022-11-21T04:08:57.022Z,38.80
2022-11-21T04:11:32.874Z,44.70
2022-11-21T04:14:09.102Z,46.70
2022-11-21T04:16:44.996Z,45.00
2022-11-21T04:19:20.834Z,43.20
2022-11-21T04:21:57.451Z,45.60
2022-11-21T04:24:33.988Z,41.40
2022-11-21T04:27:09.845Z,44.00
2022-11-21T04:29:45.575Z,41.50
2022-11-21T04:32:21.354Z,41.60
2022-11-21T04:34:57.312Z,42.30
2022-11-21T04:37:33.236Z,43.50
2022-11-21T04:40:12.170Z,41.20
2022-11-21T04:42:49.413Z,40.60
2022-11-21T04:45:25.435Z,39.30
2022-11-21T04:48:01.265Z,38.90
2022-11-21T04:50:37.242Z,38.80
2022-11-21T04:53:13.303Z,36.20
2022-11-21T04:55:49.063Z,37.90
2022-11-21T04:58:25.105Z,36.90
2022-11-21T05:01:06.155Z,40.60
2022-11-21T05:03:41.987Z,39.60
2022-11-21T05:06:17.792Z,38.40
2022-11-21T05:08:54.262Z,37.60
2022-11-21T05:11:47.722Z,45.50
2022-11-21T05:14:26.788Z,43.70
2022-11-21T05:17:03.008Z,43.60
2022-11-21T05:19:38.871Z,48.10
2022-11-21T05:22:14.743Z,47.90
2022-11-21T05:24:50.668Z,47.50
2022-11-21T05:27:26.525Z,43.70
2022-11-21T05:30:02.361Z,40.80
2022-11-21T05:32:38.337Z,40.10
2022-11-21T05:35:15.036Z,41.90
2022-11-21T05:37:56.447Z,51.30
2022-11-21T05:40:32.418Z,44.80
2022-11-21T05:43:26.314Z,44.00
2022-11-21T05:46:02.183Z,42.60
2022-11-21T05:48:38.130Z,42.80
2022-11-21T05:51:15.132Z,40.90
2022-11-21T05:53:51.675Z,41.90
2022-11-21T05:56:27.741Z,40.60
2022-11-21T05:59:03.905Z,41.50
2022-11-21T06:01:57.865Z,43.00
2022-11-21T06:04:33.808Z,42.30
2022-11-21T06:07:09.722Z,41.90
2022-11-21T06:09:45.808Z,39.90
2022-11-21T06:12:25.472Z,41.10
2022-11-21T06:15:01.623Z,39.80
2022-11-21T06:17:37.981Z,39.90
2022-11-21T06:20:16.413Z,42.70
2022-11-21T06:22:53.455Z,40.50
2022-11-21T06:25:29.458Z,40.30
2022-11-21T06:28:06.785Z,45.90
2022-11-21T06:30:42.699Z,50.10
2022-11-21T06:33:18.789Z,49.80
2022-11-21T06:35:54.870Z,48.80
2022-11-21T06:38:31.798Z,49.00
2022-11-21T06:41:14.374Z,46.90
2022-11-21T06:43:50.508Z,50.20
2022-11-21T06:46:26.292Z,47.50
2022-11-21T06:49:02.363Z,45.50
2022-11-21T06:51:38.448Z,48.10
2022-11-21T06:54:16.891Z,44.60
2022-11-21T06:56:56.157Z,43.50
2022-11-21T06:59:32.219Z,43.00
2022-11-21T07:02:08.096Z,45.30
2022-11-21T07:04:44.175Z,43.20
2022-11-21T07:07:20.173Z,45.50
2022-11-21T07:09:56.173Z,47.90
2022-11-21T07:12:49.679Z,47.10
2022-11-21T07:15:25.504Z,45.80
2022-11-21T07:18:03.691Z,44.90
2022-11-21T07:20:40.283Z,45.70
2022-11-21T07:23:17.241Z,46.20
2022-11-21T07:25:53.197Z,42.80
2022-11-21T07:28:29.244Z,43.60
2022-11-21T07:31:12.945Z,45.40
2022-11-21T07:33:49.973Z,53.90
2022-11-21T07:36:25.829Z,55.10
2022-11-21T07:39:01.885Z,52.40
2022-11-21T07:41:37.942Z,49.70
2022-11-21T07:44:13.829Z,47.60
2022-11-21T07:46:49.818Z,46.60
2022-11-21T07:49:26.098Z,45.10
2022-11-21T07:52:02.820Z,44.30
2022-11-21T07:54:38.874Z,41.00
2022-11-21T07:57:14.912Z,38.80
2022-11-21T07:59:50.972Z,39.10
2022-11-21T08:02:29.979Z,37.20
2022-11-21T08:05:06.356Z,34.70
2022-11-21T08:07:42.187Z,34.80
2022-11-21T08:10:19.796Z,38.30
2022-11-21T08:12:55.716Z,35.90
2022-11-21T08:15:31.959Z,34.80
2022-11-21T08:18:15.891Z,33.70
2022-11-21T08:20:51.857Z,38.50
2022-11-21T08:23:27.727Z,37.30
2022-11-21T08:26:03.676Z,36.90
2022-11-21T08:28:39.671Z,28.50
2022-11-21T08:31:15.663Z,36.70
2022-11-21T08:33:51.719Z,37.30
2022-11-21T08:36:27.897Z,38.10
2022-11-21T08:39:04.360Z,38.00
2022-11-21T08:41:57.600Z,39.30
2022-11-21T08:44:34.708Z,35.80
2022-11-21T08:47:10.641Z,32.80
2022-11-21T08:49:47.212Z,34.80
2022-11-21T08:52:23.070Z,28.00
2022-11-21T08:54:59.917Z,34.90
2022-11-21T08:57:40.197Z,32.10
2022-11-21T09:00:21.714Z,34.60
2022-11-21T09:02:57.522Z,32.10
2022-11-21T09:05:33.420Z,34.10
2022-11-21T09:08:09.548Z,31.40
2022-11-21T09:10:45.712Z,31.70
2022-11-21T09:13:21.769Z,36.50
2022-11-21T09:16:20.240Z,37.20
2022-11-21T09:18:58.739Z,34.60
2022-11-21T09:21:34.534Z,34.80
2022-11-21T09:24:11.253Z,33.30
2022-11-21T09:26:47.526Z,34.30
2022-11-21T09:29:23.245Z,33.20
2022-11-21T09:31:59.082Z,29.20
2022-11-21T09:34:35.111Z,29.90
2022-11-21T09:37:10.963Z,29.30
2022-11-21T09:39:46.926Z,32.40
2022-11-21T09:43:01.954Z,30.30
2022-11-21T09:45:47.007Z,33.50
2022-11-21T09:48:32.030Z,31.10
2022-11-21T09:51:19.006Z,30.00
2022-11-21T09:54:03.701Z,30.50
2022-11-21T09:56:44.853Z,30.90
2022-11-21T09:59:37.192Z,30.00
2022-11-21T10:02:20.323Z,27.70
2022-11-21T10:05:00.816Z,27.40
2022-11-21T10:07:40.579Z,27.80
2022-11-21T10:10:46.337Z,27.10
2022-11-21T10:13:48.004Z,24.20
2022-11-21T10:16:41.831Z,25.40
2022-11-21T10:19:53.426Z,26.90
2022-11-21T10:22:57.194Z,28.80
2022-11-21T10:25:40.161Z,29.70
2022-11-21T10:28:28.257Z,31.00
2022-11-21T10:31:06.148Z,31.10
2022-11-21T10:33:42.896Z,29.20
2022-11-21T10:36:31.875Z,30.90
2022-11-21T10:39:19.684Z,30.90
2022-11-21T10:42:05.148Z,32.10
2022-11-21T10:44:58.972Z,31.90
2022-11-21T10:47:39.969Z,34.10
2022-11-21T10:50:35.309Z,32.70
2022-11-21T10:53:39.200Z,33.90
2022-11-21T10:56:18.869Z,36.10
2022-11-21T10:58:59.353Z,31.50
2022-11-21T11:01:37.917Z,36.50
2022-11-21T11:04:28.617Z,33.40
2022-11-21T11:10:28.418Z,31.80
2022-11-21T11:16:24.747Z,32.00
2022-11-21T11:19:17.896Z,32.80
2022-11-21T11:21:53.881Z,32.70
2022-11-21T11:24:31.404Z,33.10
2022-11-21T11:27:07.896Z,31.60
2022-11-21T11:29:57.882Z,31.50
2022-11-21T11:32:33.851Z,29.20
2022-11-21T11:35:34.468Z,32.80
2022-11-21T11:38:15.690Z,30.70
2022-11-21T11:40:51.701Z,31.00
2022-11-21T11:44:03.092Z,31.90
2022-11-21T11:47:16.790Z,30.60
2022-11-21T11:50:12.199Z,30.70
2022-11-21T11:53:05.521Z,29.60
2022-11-21T11:55:50.263Z,30.50
2022-11-21T11:58:36.791Z,29.80
2022-11-21T12:01:22.983Z,27.40
2022-11-21T12:04:06.718Z,28.70
2022-11-21T12:10:00.759Z,28.60
2022-11-21T12:12:43.336Z,27.20
2022-11-21T12:15:42.585Z,25.10
2022-11-21T12:18:35.224Z,30.00
2022-11-21T12:21:18.746Z,26.60
2022-11-21T12:23:57.322Z,26.90
2022-11-21T12:26:57.663Z,28.60
2022-11-21T12:30:04.457Z,28.70
2022-11-21T12:33:06.792Z,27.80
2022-11-21T12:36:23.753Z,26.90
2022-11-21T12:39:48.158Z,26.60
2022-11-21T12:42:51.238Z,29.00
2022-11-21T12:45:55.293Z,26.90
2022-11-21T12:49:13.543Z,29.30
2022-11-21T12:52:50.089Z,26.70
2022-11-21T12:55:39.146Z,26.60
2022-11-21T12:58:32.778Z,25.00
2022-11-21T13:01:29.840Z,24.80
2022-11-21T13:04:10.786Z,24.40
2022-11-21T13:06:49.548Z,24.50
2022-11-21T13:09:28.569Z,25.50
2022-11-21T13:12:14.979Z,23.20
2022-11-21T13:15:05.637Z,24.50
2022-11-21T13:17:54.967Z,24.50
2022-11-21T13:20:40.576Z,23.10
2022-11-21T13:23:42.124Z,23.30
2022-11-21T13:26:57.017Z,21.80
2022-11-21T13:29:32.933Z,23.00
2022-11-21T13:32:44.524Z,23.10
2022-11-21T13:36:11.634Z,21.70
2022-11-21T13:39:40.408Z,21.30
2022-11-21T13:42:35.581Z,20.00
2022-11-21T13:45:45.146Z,21.70
2022-11-21T13:49:02.052Z,23.80
2022-11-21T13:51:58.055Z,22.70
2022-11-21T13:55:12.020Z,23.60
2022-11-21T13:58:17.161Z,22.50
2022-11-21T14:01:34.380Z,22.80
2022-11-21T14:04:58.466Z,22.90
2022-11-21T14:07:37.855Z,22.20
2022-11-21T14:10:35.485Z,23.60
2022-11-21T14:13:28.463Z,22.80
2022-11-21T14:16:28.844Z,23.60
2022-11-21T14:19:06.474Z,23.10
2022-11-21T14:21:46.646Z,23.70
2022-11-21T14:24:24.198Z,23.20
2022-11-21T14:27:01.029Z,23.60
2022-11-21T14:29:44.165Z,24.70
2022-11-21T14:32:29.123Z,24.10
2022-11-21T14:35:26.663Z,24.50
2022-11-21T14:38:06.804Z,22.90
2022-11-21T14:40:42.759Z,25.00
2022-11-21T14:43:35.460Z,23.30
2022-11-21T14:46:22.649Z,23.20
2022-11-21T14:49:11.092Z,21.90
2022-11-21T14:51:51.059Z,22.30
2022-11-21T14:54:31.600Z,22.20
2022-11-21T14:57:23.485Z,21.60
2022-11-21T15:00:01.776Z,22.80
2022-11-21T15:02:39.031Z,22.20
2022-11-21T15:05:46.985Z,21.50
2022-11-21T15:11:23.350Z,22.70
2022-11-21T15:14:16.775Z,22.20
2022-11-21T15:16:57.371Z,20.60
2022-11-21T15:19:34.577Z,21.00
2022-11-21T15:22:24.897Z,21.10
2022-11-21T15:25:18.890Z,21.20
2022-11-21T15:28:16.118Z,22.10
2022-11-21T15:31:19.367Z,21.20
2022-11-21T15:34:34.764Z,21.70
2022-11-21T15:37:19.274Z,21.10
2022-11-21T15:39:56.330Z,22.40
2022-11-21T15:42:41.301Z,23.80
2022-11-21T15:45:30.041Z,23.40
2022-11-21T15:48:07.260Z,21.80
2022-11-21T15:50:43.666Z,23.30
2022-11-21T15:53:24.164Z,22.50
2022-11-21T15:56:00.229Z,21.90
2022-11-21T15:58:36.718Z,22.70
2022-11-21T16:01:19.596Z,22.80
2022-11-21T16:03:59.097Z,22.30
2022-11-21T16:06:36.749Z,22.90
2022-11-21T16:09:12.799Z,21.60
2022-11-21T16:11:48.918Z,22.30
2022-11-21T16:14:24.840Z,23.40
2022-11-21T16:17:01.032Z,23.10
2022-11-21T16:19:37.238Z,23.80
2022-11-21T16:22:13.563Z,24.20
2022-11-21T16:24:50.663Z,23.80
2022-11-21T16:27:26.847Z,24.20
2022-11-21T16:30:02.837Z,22.70
2022-11-21T16:32:38.900Z,22.90
2022-11-21T16:35:15.602Z,23.20
2022-11-21T16:37:54.157Z,22.00
2022-11-21T16:40:30.125Z,23.30
2022-11-21T16:43:14.530Z,21.90
2022-11-21T16:45:52.509Z,22.90
2022-11-21T16:48:29.348Z,23.00
2022-11-21T16:51:16.509Z,24.40
2022-11-21T16:53:54.522Z,24.70
2022-11-21T16:56:30.411Z,23.90
2022-11-21T16:59:06.265Z,23.80
2022-11-21T17:01:42.147Z,24.20
2022-11-21T17:04:18.495Z,26.30
2022-11-21T17:06:54.484Z,24.10
2022-11-21T17:09:31.219Z,23.60
2022-11-21T17:12:09.130Z,28.50
2022-11-21T17:14:45.491Z,29.20
2022-11-21T17:17:21.656Z,26.50
2022-11-21T17:19:58.012Z,28.20
2022-11-21T17:22:34.291Z,25.10
2022-11-21T17:25:11.992Z,25.70
2022-11-21T17:27:47.934Z,25.40
2022-11-21T17:30:24.194Z,25.90
2022-11-21T17:33:02.268Z,25.20
2022-11-21T17:35:38.338Z,24.60
2022-11-21T17:38:14.518Z,25.60
2022-11-21T17:40:59.798Z,24.30
2022-11-21T17:43:38.335Z,24.70
2022-11-21T17:46:18.494Z,25.90
2022-11-21T17:48:58.326Z,24.80
2022-11-21T17:51:37.939Z,32.50
2022-11-21T17:54:14.104Z,26.20
2022-11-21T17:56:56.400Z,25.80
2022-11-21T17:59:34.876Z,26.80
2022-11-21T18:02:12.176Z,26.30
2022-11-21T18:04:48.941Z,31.50
2022-11-21T18:07:24.991Z,26.60
2022-11-21T18:10:20.438Z,27.30
2022-11-21T18:12:57.172Z,26.30
2022-11-21T18:15:34.160Z,26.80
2022-11-21T18:18:10.593Z,25.90
2022-11-21T18:20:46.694Z,27.30
2022-11-21T18:23:22.683Z,26.80
2022-11-21T18:26:01.713Z,27.00
2022-11-21T18:28:38.285Z,26.20
2022-11-21T18:31:21.017Z,28.70
2022-11-21T18:33:59.929Z,26.00
2022-11-21T18:36:36.242Z,27.60
2022-11-21T18:39:14.998Z,25.90
2022-11-21T18:41:51.501Z,26.90
2022-11-21T18:44:27.630Z,27.60
2022-11-21T18:47:19.389Z,28.40
2022-11-21T18:49:56.525Z,29.30
2022-11-21T18:52:34.649Z,29.60
2022-11-21T18:55:12.395Z,29.00
2022-11-21T18:57:48.441Z,29.60
2022-11-21T19:00:25.599Z,28.60
2022-11-21T19:03:01.650Z,30.40
2022-11-21T19:05:41.279Z,33.50
2022-11-21T19:08:17.340Z,32.40
2022-11-21T19:10:53.711Z,50.80
2022-11-21T19:13:30.992Z,35.50
2022-11-21T19:16:12.356Z,32.40
2022-11-21T19:19:11.696Z,31.00
2022-11-21T19:21:47.359Z,30.40
2022-11-21T19:24:23.988Z,29.80
2022-11-21T19:27:02.610Z,30.80
2022-11-21T19:29:38.869Z,29.10
2022-11-21T19:32:15.261Z,30.80
2022-11-21T19:34:51.315Z,30.80
2022-11-21T19:37:32.056Z,29.40
2022-11-21T19:40:11.416Z,30.00
2022-11-21T19:42:49.849Z,31.10
2022-11-21T19:45:26.118Z,31.40
2022-11-21T19:48:02.030Z,27.70
2022-11-21T19:50:38.631Z,29.50
2022-11-21T19:53:14.571Z,30.90
2022-11-21T19:55:50.506Z,32.30
2022-11-21T19:58:27.689Z,33.50
2022-11-21T20:01:14.294Z,32.40
2022-11-21T20:03:54.805Z,31.60
2022-11-21T20:06:33.783Z,31.10
2022-11-21T20:09:14.595Z,30.70
2022-11-21T20:11:55.088Z,29.30
2022-11-21T20:14:35.157Z,31.00
2022-11-21T20:17:11.625Z,31.20
2022-11-21T20:19:50.784Z,29.60
2022-11-21T20:22:27.119Z,29.50
2022-11-21T20:25:03.085Z,29.40
2022-11-21T20:27:39.495Z,29.00
2022-11-21T20:30:16.531Z,30.60
2022-11-21T20:32:52.486Z,31.80
2022-11-21T20:35:28.744Z,30.00
2022-11-21T20:38:04.702Z,31.20
2022-11-21T20:40:46.454Z,31.60
2022-11-21T20:43:37.459Z,30.00
2022-11-21T20:46:21.602Z,30.80
2022-11-21T20:48:58.951Z,29.30
2022-11-21T20:52:56.021Z,29.80
2022-11-21T20:54:31.607Z,29.70
2022-11-21T20:57:14.310Z,30.70
2022-11-21T20:59:51.213Z,31.10
2022-11-21T21:02:27.358Z,30.30
2022-11-21T21:05:03.558Z,29.70
2022-11-21T21:07:39.463Z,30.00
2022-11-21T21:10:17.825Z,31.10
2022-11-21T21:12:54.145Z,30.90
2022-11-21T21:15:30.062Z,30.10
2022-11-21T21:18:06.271Z,29.80
2022-11-21T21:21:01.913Z,31.40
2022-11-21T21:23:39.596Z,30.30
2022-11-21T21:26:20.596Z,31.60
2022-11-21T21:28:59.863Z,32.20
2022-11-21T21:31:36.489Z,30.80
2022-11-21T21:34:12.949Z,30.70
2022-11-21T21:36:49.188Z,31.00
2022-11-21T21:39:25.445Z,31.00
2022-11-21T21:42:01.535Z,33.20
2022-11-21T21:44:38.523Z,30.50
2022-11-21T21:47:16.301Z,32.20
2022-11-21T21:49:53.163Z,32.10
2022-11-21T21:52:29.320Z,30.30
2022-11-21T21:55:06.096Z,47.90
2022-11-21T21:57:47.185Z,35.80
2022-11-21T22:00:27.422Z,31.30
2022-11-21T22:03:04.465Z,30.90
2022-11-21T22:05:40.600Z,31.60
2022-11-21T22:08:16.933Z,30.50
2022-11-21T22:10:53.189Z,32.00
2022-11-21T22:13:29.272Z,32.20
2022-11-21T22:16:07.748Z,31.00
2022-11-21T22:18:44.303Z,28.90
2022-11-21T22:21:23.834Z,29.40
2022-11-21T22:26:56.868Z,31.60
2022-11-21T22:29:32.836Z,32.40
2022-11-21T22:32:09.502Z,32.10
2022-11-21T22:34:45.867Z,30.60
2022-11-21T22:37:21.825Z,31.50
2022-11-21T22:39:57.914Z,32.00
2022-11-21T22:42:33.842Z,30.20
2022-11-21T22:45:12.515Z,32.20
2022-11-21T22:47:48.517Z,33.00
2022-11-21T22:50:24.574Z,31.50
2022-11-21T22:53:00.711Z,31.90
2022-11-21T22:55:36.694Z,33.30
2022-11-21T22:58:12.817Z,32.10
2022-11-21T23:00:48.828Z,33.40
2022-11-21T23:03:24.774Z,32.20
2022-11-21T23:06:07.237Z,32.50
2022-11-21T23:08:44.664Z,33.50
2022-11-21T23:11:28.248Z,32.10
2022-11-21T23:14:04.803Z,34.70
2022-11-21T23:16:40.826Z,36.00
2022-11-21T23:19:17.091Z,36.10
2022-11-21T23:21:53.146Z,34.60
2022-11-21T23:24:29.349Z,34.20
2022-11-21T23:27:05.660Z,34.20
2022-11-21T23:29:41.427Z,32.70
2022-11-21T23:32:17.204Z,33.60
2022-11-21T23:34:53.238Z,34.50
2022-11-21T23:37:29.234Z,36.70
2022-11-21T23:40:05.757Z,36.00
2022-11-21T23:42:41.720Z,35.00
2022-11-21T23:45:18.500Z,33.30
2022-11-21T23:47:54.761Z,33.20
2022-11-21T23:50:30.922Z,33.70
2022-11-21T23:53:06.769Z,35.10
2022-11-21T23:55:44.618Z,34.20
2022-11-21T23:58:20.955Z,35.90
